Accueil
METAR-TAF:

METAR-TAF

Aéroports :

Aéroport de Dinard Pleurtuit Saint-Malo

Dinard, France

latitude: 48-35N, longitude: 002-04W, altitude: 65 m

Observation

Le bulletin a été fait il y a 26 minutes, à 23:00 UTC
Vent 20 kt de est/nord-est avec des rafales jusqu'à 31 kt
Température 8°C
Humidité 71%
Pression 1027 hPa
Visibilité 10 km ou plus
Nuages fragmentés à une hauteur de 2600 ft
Nuages fragmentés à une hauteur de 3200 ft
Ciel couvert à une hauteur de 8200 ft

METAR: LFRD 282300Z AUTO 06020G31KT 9999 BKN026 BKN032 OVC082 08/03 Q1027

Heure: 00:26 (23:26 UTC)


TAF: absent

Observations et prévisions météorologiques de plus de 4000 aéroports (messages METAR et TAF).

Les stations disponibles sont représentées par des disques jaunes et rouges sur la carte.

Passer la souris dessus pour voir le nom de la station.

Cliquer dessus pour voir les observations et prévisions météorologiques.

Pour changer de carte: cliquez sur les boutons verts avec une croix noire pour zoomer, sur le bouton vert avec un tiret pour effectuer un zoom arrière, ou sur les flèches vertes pour les cartes adjacentes.


METAR-TAF: